createdAt,value
2019-03-28T00:01:37.063Z,3.10
2019-03-28T00:04:11.400Z,3.72
2019-03-28T00:06:45.620Z,3.72
2019-03-28T00:09:19.924Z,3.72
2019-03-28T00:11:54.601Z,3.92
2019-03-28T00:14:28.409Z,3.80
2019-03-28T00:17:02.619Z,3.72
2019-03-28T00:19:37.206Z,3.33
2019-03-28T00:22:13.809Z,3.87
2019-03-28T00:24:56.907Z,3.70
2019-03-28T00:27:31.014Z,2.95
2019-03-28T00:30:05.590Z,3.27
2019-03-28T00:32:40.393Z,3.75
2019-03-28T00:35:14.933Z,3.62
2019-03-28T00:37:49.356Z,3.58
2019-03-28T00:40:24.661Z,3.52
2019-03-28T00:42:58.742Z,3.50
2019-03-28T00:45:33.965Z,3.60
2019-03-28T00:48:08.207Z,3.17
2019-03-28T00:50:42.422Z,2.90
2019-03-28T00:53:17.984Z,3.87
2019-03-28T00:55:52.300Z,3.27
2019-03-28T00:58:27.690Z,3.25
2019-03-28T01:01:02.302Z,3.25
2019-03-28T01:03:36.611Z,3.50
2019-03-28T01:06:10.472Z,3.27
2019-03-28T01:08:44.782Z,3.08
2019-03-28T01:11:19.565Z,2.77
2019-03-28T01:13:54.194Z,2.90
2019-03-28T01:16:28.395Z,3.45
2019-03-28T01:19:02.189Z,2.98
2019-03-28T01:21:36.357Z,3.15
2019-03-28T01:24:10.747Z,2.55
2019-03-28T01:26:56.711Z,3.25
2019-03-28T01:29:21.521Z,3.17
2019-03-28T01:31:55.655Z,3.22
2019-03-28T01:34:30.365Z,3.22
2019-03-28T01:37:04.211Z,4.00
2019-03-28T01:39:39.713Z,5.58
2019-03-28T01:42:14.227Z,3.27
2019-03-28T01:44:49.483Z,2.92
2019-03-28T01:47:24.995Z,3.42
2019-03-28T01:49:59.598Z,3.45
2019-03-28T01:52:33.968Z,3.42
2019-03-28T01:55:09.107Z,3.60
2019-03-28T01:57:43.781Z,3.40
2019-03-28T02:00:18.780Z,3.17
2019-03-28T02:02:53.332Z,3.62
2019-03-28T02:05:28.210Z,3.85
2019-03-28T02:08:03.023Z,3.15
2019-03-28T02:10:37.182Z,3.83
2019-03-28T02:13:11.520Z,3.60
2019-03-28T02:15:49.007Z,3.90
2019-03-28T02:18:24.694Z,3.47
2019-03-28T02:20:58.571Z,3.58
2019-03-28T02:23:33.349Z,3.87
2019-03-28T02:26:08.137Z,3.72
2019-03-28T02:28:42.092Z,3.72
2019-03-28T02:31:16.916Z,3.70
2019-03-28T02:33:52.356Z,3.40
2019-03-28T02:36:26.247Z,4.15
2019-03-28T02:38:59.709Z,4.35
2019-03-28T02:41:34.897Z,3.45
2019-03-28T02:44:09.333Z,4.28
2019-03-28T02:46:44.335Z,4.00
2019-03-28T02:49:18.910Z,3.83
2019-03-28T02:51:54.220Z,4.35
2019-03-28T02:54:29.354Z,4.65
2019-03-28T02:57:03.835Z,4.50
2019-03-28T02:59:37.900Z,4.05
2019-03-28T03:02:13.615Z,4.03
2019-03-28T03:04:47.722Z,3.58
2019-03-28T03:07:22.605Z,3.65
2019-03-28T03:09:58.147Z,4.25
2019-03-28T03:12:33.640Z,3.65
2019-03-28T03:15:07.937Z,3.70
2019-03-28T03:17:42.708Z,3.45
2019-03-28T03:20:17.502Z,3.37
2019-03-28T03:22:51.773Z,3.62
2019-03-28T03:25:26.053Z,3.65
2019-03-28T03:28:01.217Z,3.47
2019-03-28T03:30:35.470Z,3.58
2019-03-28T03:33:11.466Z,3.77
2019-03-28T03:35:46.261Z,3.47
2019-03-28T03:38:21.660Z,4.22
2019-03-28T03:40:57.825Z,3.98
2019-03-28T03:43:33.058Z,3.60
2019-03-28T03:46:10.895Z,3.85
2019-03-28T03:48:47.633Z,3.58
2019-03-28T03:51:36.366Z,4.53
2019-03-28T03:54:13.905Z,4.53
2019-03-28T03:56:49.513Z,4.35
2019-03-28T03:59:24.767Z,3.50
2019-03-28T04:01:59.214Z,5.22
2019-03-28T04:04:44.708Z,3.65
2019-03-28T04:07:23.193Z,3.87
2019-03-28T04:10:00.742Z,3.72
2019-03-28T04:12:40.685Z,4.17
2019-03-28T04:15:15.730Z,3.47
2019-03-28T04:17:52.063Z,4.25
2019-03-28T04:20:28.181Z,4.22
2019-03-28T04:23:03.991Z,5.05
2019-03-28T04:25:41.104Z,4.70
2019-03-28T04:28:30.808Z,4.55
2019-03-28T04:30:56.560Z,5.33
2019-03-28T04:33:39.458Z,4.37
2019-03-28T04:36:14.751Z,4.05
2019-03-28T04:38:50.541Z,4.42
2019-03-28T04:41:25.421Z,4.17
2019-03-28T04:43:59.817Z,5.15
2019-03-28T04:46:34.089Z,5.42
2019-03-28T04:49:09.001Z,4.53
2019-03-28T04:51:42.969Z,4.50
2019-03-28T04:54:16.760Z,4.37
2019-03-28T04:56:51.521Z,4.05
2019-03-28T04:59:25.622Z,4.62
2019-03-28T05:02:03.455Z,3.87
2019-03-28T05:04:36.500Z,4.25
2019-03-28T05:07:11.197Z,4.85
2019-03-28T05:09:48.418Z,4.37
2019-03-28T05:12:22.292Z,3.85
2019-03-28T05:14:57.206Z,4.58
2019-03-28T05:17:32.099Z,3.98
2019-03-28T05:20:07.777Z,3.92
2019-03-28T05:22:43.898Z,4.45
2019-03-28T05:25:19.215Z,4.35
2019-03-28T05:27:53.206Z,4.10
2019-03-28T05:30:27.788Z,4.20
2019-03-28T05:33:01.981Z,4.33
2019-03-28T05:35:37.505Z,3.25
2019-03-28T05:38:12.828Z,3.67
2019-03-28T05:40:48.616Z,4.75
2019-03-28T05:43:22.732Z,4.87
2019-03-28T05:45:57.306Z,4.58
2019-03-28T05:48:34.039Z,3.75
2019-03-28T05:51:08.093Z,3.70
2019-03-28T05:53:44.066Z,4.03
2019-03-28T05:56:19.269Z,4.72
2019-03-28T05:58:54.434Z,4.17
2019-03-28T06:01:28.817Z,4.30
2019-03-28T06:04:04.398Z,4.65
2019-03-28T06:06:39.052Z,4.15
2019-03-28T06:09:12.954Z,4.67
2019-03-28T06:11:47.612Z,5.22
2019-03-28T06:14:21.897Z,4.92
2019-03-28T06:16:56.766Z,4.80
2019-03-28T06:19:31.348Z,5.30
2019-03-28T06:22:05.623Z,4.53
2019-03-28T06:24:40.208Z,4.92
2019-03-28T06:27:14.414Z,5.03
2019-03-28T06:29:52.727Z,4.53
2019-03-28T06:32:26.826Z,4.15
2019-03-28T06:35:10.805Z,4.92
2019-03-28T06:37:45.520Z,5.15
2019-03-28T06:40:19.529Z,5.00
2019-03-28T06:42:54.694Z,4.42
2019-03-28T06:45:29.839Z,4.00
2019-03-28T06:48:04.260Z,4.40
2019-03-28T06:50:38.832Z,4.83
2019-03-28T06:53:13.371Z,4.37
2019-03-28T06:55:47.296Z,4.85
2019-03-28T06:58:22.281Z,5.15
2019-03-28T07:00:56.771Z,5.12
2019-03-28T07:03:30.717Z,4.12
2019-03-28T07:06:04.644Z,4.22
2019-03-28T07:08:39.786Z,3.70
2019-03-28T07:11:15.563Z,3.75
2019-03-28T07:13:49.879Z,3.58
2019-03-28T07:16:24.893Z,3.42
2019-03-28T07:18:59.122Z,4.05
2019-03-28T07:21:33.061Z,3.45
2019-03-28T07:24:08.188Z,3.67
2019-03-28T07:26:42.451Z,3.52
2019-03-28T07:29:17.568Z,4.10
2019-03-28T07:31:51.721Z,4.22
2019-03-28T07:34:25.966Z,3.87
2019-03-28T07:36:59.805Z,3.58
2019-03-28T07:39:33.422Z,3.95
2019-03-28T07:42:07.446Z,4.78
2019-03-28T07:44:42.778Z,4.40
2019-03-28T07:47:17.414Z,4.55
2019-03-28T07:49:51.303Z,4.20
2019-03-28T07:52:25.579Z,4.12
2019-03-28T07:55:00.392Z,4.62
2019-03-28T07:57:35.034Z,4.20
2019-03-28T08:00:10.642Z,4.33
2019-03-28T08:02:45.839Z,4.25
2019-03-28T08:05:19.730Z,3.42
2019-03-28T08:07:53.883Z,3.62
2019-03-28T08:10:27.690Z,4.47
2019-03-28T08:13:02.480Z,3.85
2019-03-28T08:15:37.853Z,4.22
2019-03-28T08:18:11.308Z,4.25
2019-03-28T08:23:23.310Z,3.58
2019-03-28T08:25:58.501Z,4.25
2019-03-28T08:28:33.112Z,4.78
2019-03-28T08:31:07.925Z,4.78
2019-03-28T08:33:45.274Z,4.62
2019-03-28T08:36:20.908Z,4.62
2019-03-28T08:38:56.388Z,4.60
2019-03-28T08:41:30.207Z,4.17
2019-03-28T08:44:07.212Z,3.90
2019-03-28T08:46:40.849Z,4.35
2019-03-28T08:49:15.087Z,3.70
2019-03-28T08:51:50.930Z,4.12
2019-03-28T08:54:25.537Z,4.15
2019-03-28T08:57:01.984Z,4.33
2019-03-28T08:59:36.613Z,4.25
2019-03-28T09:02:11.715Z,4.10
2019-03-28T09:04:46.201Z,5.17
2019-03-28T09:07:20.384Z,3.98
2019-03-28T09:09:55.707Z,4.45
2019-03-28T09:12:34.866Z,4.47
2019-03-28T09:15:08.146Z,4.90
2019-03-28T09:17:42.356Z,4.47
2019-03-28T09:20:17.118Z,4.47
2019-03-28T09:22:51.989Z,4.80
2019-03-28T09:25:25.859Z,4.65
2019-03-28T09:28:01.574Z,4.78
2019-03-28T09:30:48.920Z,4.45
2019-03-28T09:33:17.871Z,3.90
2019-03-28T09:35:51.744Z,3.90
2019-03-28T09:38:25.693Z,4.12
2019-03-28T09:41:01.255Z,4.47
2019-03-28T09:43:35.779Z,4.60
2019-03-28T09:46:10.071Z,3.87
2019-03-28T09:48:45.844Z,4.03
2019-03-28T09:51:20.625Z,3.62
2019-03-28T09:53:56.231Z,3.98
2019-03-28T09:56:30.388Z,3.80
2019-03-28T09:59:04.994Z,4.15
2019-03-28T10:01:39.704Z,4.10
2019-03-28T10:04:15.668Z,4.15
2019-03-28T10:06:50.163Z,3.95
2019-03-28T10:09:24.675Z,3.65
2019-03-28T10:11:59.204Z,3.85
2019-03-28T10:14:33.830Z,4.17
2019-03-28T10:17:08.024Z,3.42
2019-03-28T10:19:42.146Z,3.52
2019-03-28T10:22:16.365Z,3.02
2019-03-28T10:24:51.237Z,3.15
2019-03-28T10:27:25.802Z,2.92
2019-03-28T10:29:59.955Z,2.85
2019-03-28T10:32:35.034Z,2.90
2019-03-28T10:35:11.730Z,2.67
2019-03-28T10:37:47.622Z,3.00
2019-03-28T10:40:22.169Z,2.95
2019-03-28T10:42:57.728Z,2.80
2019-03-28T10:45:33.761Z,2.83
2019-03-28T10:48:08.372Z,3.05
2019-03-28T10:50:45.824Z,2.80
2019-03-28T10:53:18.870Z,2.53
2019-03-28T10:55:54.121Z,2.83
2019-03-28T10:58:27.672Z,2.70
2019-03-28T11:01:01.656Z,2.80
2019-03-28T11:03:35.536Z,2.77
2019-03-28T11:06:10.240Z,3.27
2019-03-28T11:08:45.442Z,2.80
2019-03-28T11:11:18.919Z,2.97
2019-03-28T11:13:53.117Z,2.50
2019-03-28T11:16:27.073Z,3.17
2019-03-28T11:19:01.954Z,1.77
2019-03-28T11:21:36.422Z,1.90
2019-03-28T11:24:10.967Z,1.70
2019-03-28T11:26:45.180Z,1.93
2019-03-28T11:29:19.367Z,2.00
2019-03-28T11:31:53.530Z,1.90
2019-03-28T11:34:27.385Z,1.90
2019-03-28T11:37:00.884Z,2.27
2019-03-28T11:39:35.421Z,2.20
2019-03-28T11:42:09.408Z,2.27
2019-03-28T11:44:43.744Z,2.23
2019-03-28T11:47:17.995Z,2.20
2019-03-28T11:49:52.164Z,2.40
2019-03-28T11:52:26.073Z,2.50
2019-03-28T11:54:59.948Z,2.27
2019-03-28T11:57:34.616Z,2.43
2019-03-28T12:00:12.195Z,2.50
2019-03-28T12:02:46.888Z,2.53
2019-03-28T12:05:20.753Z,2.20
2019-03-28T12:07:55.050Z,2.57
2019-03-28T12:10:29.362Z,3.10
2019-03-28T12:13:04.235Z,2.87
2019-03-28T12:15:39.051Z,2.33
2019-03-28T12:18:15.189Z,2.30
2019-03-28T12:20:49.428Z,2.70
2019-03-28T12:23:24.571Z,2.57
2019-03-28T12:25:59.674Z,2.40
2019-03-28T12:28:33.994Z,2.17
2019-03-28T12:31:07.976Z,2.00
2019-03-28T12:33:43.856Z,1.80
2019-03-28T12:36:18.751Z,2.07
2019-03-28T12:38:53.045Z,1.70
2019-03-28T12:41:27.736Z,1.73
2019-03-28T12:44:02.059Z,2.13
2019-03-28T12:46:36.572Z,2.17
2019-03-28T12:49:11.295Z,1.90
2019-03-28T12:51:46.411Z,2.00
2019-03-28T12:54:20.224Z,1.80
2019-03-28T12:56:54.455Z,1.97
2019-03-28T12:59:29.065Z,2.33
2019-03-28T13:02:03.282Z,1.90
2019-03-28T13:04:37.116Z,2.13
2019-03-28T13:07:11.295Z,2.10
2019-03-28T13:09:45.711Z,1.97
2019-03-28T13:12:19.706Z,2.10
2019-03-28T13:14:54.458Z,1.93
2019-03-28T13:17:28.368Z,2.40
2019-03-28T13:20:03.193Z,1.87
2019-03-28T13:22:38.474Z,2.20
2019-03-28T13:25:12.192Z,2.00
2019-03-28T13:27:47.043Z,2.23
2019-03-28T13:30:22.680Z,2.30
2019-03-28T13:32:56.932Z,2.20
2019-03-28T13:35:30.706Z,2.27
2019-03-28T13:38:05.424Z,2.30
2019-03-28T13:40:39.725Z,2.13
2019-03-28T13:43:14.426Z,2.00
2019-03-28T13:45:48.363Z,1.90
2019-03-28T13:48:22.656Z,2.50
2019-03-28T13:50:57.962Z,2.13
2019-03-28T13:53:39.292Z,2.17
2019-03-28T13:56:09.938Z,2.23
2019-03-28T13:58:44.648Z,1.77
2019-03-28T14:01:18.546Z,1.63
2019-03-28T14:03:52.102Z,1.70
2019-03-28T14:06:27.978Z,1.90
2019-03-28T14:09:01.961Z,2.17
2019-03-28T14:11:36.584Z,1.80
2019-03-28T14:14:11.345Z,2.00
2019-03-28T14:16:47.764Z,1.93
2019-03-28T14:19:22.009Z,1.77
2019-03-28T14:21:57.076Z,1.80
2019-03-28T14:24:32.111Z,2.23
2019-03-28T14:27:06.031Z,2.40
2019-03-28T14:29:40.518Z,2.40
2019-03-28T14:32:15.511Z,2.77
2019-03-28T14:34:50.703Z,2.95
2019-03-28T14:37:26.318Z,2.33
2019-03-28T14:40:00.506Z,2.20
2019-03-28T14:42:36.145Z,2.43
2019-03-28T14:45:10.508Z,2.13
2019-03-28T14:47:44.923Z,2.13
2019-03-28T14:50:36.124Z,2.47
2019-03-28T14:53:10.077Z,2.37
2019-03-28T14:55:44.122Z,2.27
2019-03-28T14:58:21.840Z,2.17
2019-03-28T15:00:55.575Z,1.97
2019-03-28T15:03:30.827Z,1.97
2019-03-28T15:06:04.429Z,2.80
2019-03-28T15:08:38.829Z,2.23
2019-03-28T15:11:14.379Z,2.07
2019-03-28T15:13:47.967Z,2.57
2019-03-28T15:16:21.542Z,2.17
2019-03-28T15:18:55.943Z,1.70
2019-03-28T15:21:30.684Z,3.17
2019-03-28T15:24:05.485Z,1.77
2019-03-28T15:26:40.869Z,1.60
2019-03-28T15:29:15.269Z,1.63
2019-03-28T15:31:49.788Z,1.57
2019-03-28T15:34:25.246Z,1.60
2019-03-28T15:37:00.012Z,2.47
2019-03-28T15:39:34.627Z,2.08
2019-03-28T15:42:09.547Z,2.03
2019-03-28T15:44:44.789Z,1.60
2019-03-28T15:47:19.643Z,1.83
2019-03-28T15:49:54.775Z,2.20
2019-03-28T15:52:29.265Z,2.10
2019-03-28T15:55:03.184Z,1.77
2019-03-28T15:57:40.727Z,1.90
2019-03-28T16:00:15.357Z,2.37
2019-03-28T16:02:48.852Z,2.05
2019-03-28T16:05:23.485Z,2.10
2019-03-28T16:07:59.421Z,1.77
2019-03-28T16:10:33.772Z,2.15
2019-03-28T16:13:08.631Z,2.10
2019-03-28T16:15:43.331Z,1.95
2019-03-28T16:18:17.473Z,1.85
2019-03-28T16:20:53.450Z,2.45
2019-03-28T16:23:27.748Z,2.58
2019-03-28T16:26:02.987Z,3.90
2019-03-28T16:28:38.169Z,2.62
2019-03-28T16:31:13.433Z,2.60
2019-03-28T16:33:48.810Z,2.40
2019-03-28T16:36:23.158Z,2.30
2019-03-28T16:38:57.387Z,2.40
2019-03-28T16:41:31.593Z,1.92
2019-03-28T16:44:07.206Z,2.17
2019-03-28T16:46:41.106Z,2.52
2019-03-28T16:49:16.050Z,2.22
2019-03-28T16:51:52.104Z,2.40
2019-03-28T16:54:26.389Z,2.42
2019-03-28T16:57:01.311Z,2.42
2019-03-28T16:59:35.687Z,2.33
2019-03-28T17:02:10.819Z,2.33
2019-03-28T17:04:45.322Z,2.55
2019-03-28T17:07:19.743Z,2.75
2019-03-28T17:09:55.846Z,2.77
2019-03-28T17:12:31.503Z,3.10
2019-03-28T17:15:05.856Z,2.50
2019-03-28T17:17:40.183Z,2.20
2019-03-28T17:20:15.096Z,3.17
2019-03-28T17:22:50.783Z,3.27
2019-03-28T17:25:25.313Z,3.45
2019-03-28T17:27:59.382Z,2.98
2019-03-28T17:30:36.338Z,3.02
2019-03-28T17:33:11.269Z,3.05
2019-03-28T17:35:46.081Z,2.67
2019-03-28T17:38:21.335Z,2.42
2019-03-28T17:40:57.011Z,2.98
2019-03-28T17:43:31.243Z,3.77
2019-03-28T17:46:05.769Z,3.20
2019-03-28T17:48:40.252Z,3.30
2019-03-28T17:51:14.878Z,3.35
2019-03-28T17:53:49.942Z,3.22
2019-03-28T17:56:24.582Z,3.17
2019-03-28T17:59:00.230Z,3.20
2019-03-28T18:01:34.923Z,3.27
2019-03-28T18:04:22.187Z,2.90
2019-03-28T18:06:47.960Z,3.15
2019-03-28T18:09:24.629Z,3.47
2019-03-28T18:11:59.915Z,3.80
2019-03-28T18:14:37.210Z,3.35
2019-03-28T18:17:18.168Z,3.40
2019-03-28T18:19:52.118Z,3.77
2019-03-28T18:22:28.430Z,3.98
2019-03-28T18:25:02.887Z,4.35
2019-03-28T18:27:38.437Z,4.60
2019-03-28T18:30:13.426Z,4.92
2019-03-28T18:32:50.005Z,3.85
2019-03-28T18:35:24.519Z,3.67
2019-03-28T18:37:59.352Z,3.98
2019-03-28T18:40:34.663Z,3.72
2019-03-28T18:43:08.897Z,3.08
2019-03-28T18:45:43.525Z,4.03
2019-03-28T18:48:29.179Z,3.92
2019-03-28T18:50:54.433Z,3.87
2019-03-28T18:53:28.326Z,3.85
2019-03-28T18:56:03.293Z,4.10
2019-03-28T18:58:38.184Z,3.92
2019-03-28T19:01:12.697Z,4.17
2019-03-28T19:03:49.203Z,3.83
2019-03-28T19:06:23.967Z,4.47
2019-03-28T19:08:58.221Z,3.85
2019-03-28T19:11:32.855Z,4.53
2019-03-28T19:14:07.249Z,4.28
2019-03-28T19:16:42.275Z,4.42
2019-03-28T19:19:17.145Z,4.95
2019-03-28T19:21:51.484Z,4.20
2019-03-28T19:24:26.565Z,4.30
2019-03-28T19:27:03.467Z,4.87
2019-03-28T19:29:38.297Z,4.20
2019-03-28T19:32:12.760Z,6.03
2019-03-28T19:34:47.469Z,5.20
2019-03-28T19:37:24.913Z,4.67
2019-03-28T19:39:59.174Z,4.83
2019-03-28T19:42:34.260Z,5.30
2019-03-28T19:45:09.187Z,4.47
2019-03-28T19:47:44.757Z,4.92
2019-03-28T19:50:29.616Z,4.60
2019-03-28T19:53:04.453Z,4.08
2019-03-28T19:55:40.044Z,4.55
2019-03-28T19:58:15.314Z,4.03
2019-03-28T20:00:52.130Z,3.42
2019-03-28T20:03:31.622Z,4.53
2019-03-28T20:06:21.268Z,3.65
2019-03-28T20:08:45.015Z,4.15
2019-03-28T20:11:19.169Z,3.60
2019-03-28T20:13:54.972Z,3.22
2019-03-28T20:16:29.826Z,3.02
2019-03-28T20:19:04.553Z,2.30
2019-03-28T20:21:39.504Z,3.20
2019-03-28T20:24:15.022Z,3.37
2019-03-28T20:26:54.117Z,3.80
2019-03-28T20:29:26.968Z,3.05
2019-03-28T20:32:01.544Z,2.72
2019-03-28T20:34:36.000Z,2.95
2019-03-28T20:37:11.657Z,2.50
2019-03-28T20:39:46.225Z,3.15
2019-03-28T20:42:21.363Z,3.35
2019-03-28T20:44:56.826Z,3.12
2019-03-28T20:47:31.157Z,3.05
2019-03-28T20:50:06.160Z,3.90
2019-03-28T20:52:40.780Z,3.62
2019-03-28T20:55:15.155Z,3.15
2019-03-28T20:57:50.526Z,2.95
2019-03-28T21:00:55.233Z,3.33
2019-03-28T21:03:29.676Z,3.22
2019-03-28T21:06:14.539Z,3.33
2019-03-28T21:08:42.370Z,2.83
2019-03-28T21:11:17.895Z,3.17
2019-03-28T21:13:51.702Z,3.10
2019-03-28T21:16:25.658Z,3.47
2019-03-28T21:19:02.538Z,2.70
2019-03-28T21:21:37.499Z,3.25
2019-03-28T21:24:14.889Z,3.35
2019-03-28T21:26:49.096Z,2.90
2019-03-28T21:29:23.356Z,3.65
2019-03-28T21:31:57.941Z,3.83
2019-03-28T21:34:33.841Z,4.40
2019-03-28T21:37:08.408Z,3.75
2019-03-28T21:39:44.037Z,4.05
2019-03-28T21:42:18.290Z,4.30
2019-03-28T21:44:53.078Z,5.22
2019-03-28T21:47:27.842Z,4.78
2019-03-28T21:50:02.791Z,5.50
2019-03-28T21:52:37.426Z,8.35
2019-03-28T21:55:12.581Z,6.87
2019-03-28T21:57:47.298Z,5.85
2019-03-28T22:00:22.602Z,5.37
2019-03-28T22:02:56.741Z,6.10
2019-03-28T22:05:31.076Z,5.50
2019-03-28T22:08:05.224Z,4.92
2019-03-28T22:10:39.391Z,5.00
2019-03-28T22:13:14.178Z,4.37
2019-03-28T22:15:48.217Z,4.58
2019-03-28T22:18:23.020Z,5.45
2019-03-28T22:20:59.402Z,4.15
2019-03-28T22:23:35.124Z,4.25
2019-03-28T22:26:10.085Z,4.70
2019-03-28T22:28:45.048Z,5.08
2019-03-28T22:31:19.186Z,4.70
2019-03-28T22:33:54.055Z,4.10
2019-03-28T22:36:29.785Z,4.42
2019-03-28T22:39:06.065Z,4.75
2019-03-28T22:41:40.591Z,5.00
2019-03-28T22:44:15.753Z,4.85
2019-03-28T22:46:49.889Z,4.75
2019-03-28T22:49:25.270Z,4.65
2019-03-28T22:51:59.656Z,4.67
2019-03-28T22:54:34.061Z,4.65
2019-03-28T22:57:09.144Z,4.85
2019-03-28T22:59:43.088Z,4.20
2019-03-28T23:02:18.227Z,4.45
2019-03-28T23:04:52.944Z,4.75
2019-03-28T23:07:27.241Z,4.37
2019-03-28T23:10:02.055Z,4.22
2019-03-28T23:12:36.787Z,4.10
2019-03-28T23:15:12.274Z,4.30
2019-03-28T23:17:47.002Z,4.12
2019-03-28T23:20:21.669Z,4.25
2019-03-28T23:22:56.667Z,4.25
2019-03-28T23:25:31.354Z,4.53
2019-03-28T23:28:05.773Z,4.17
2019-03-28T23:30:41.591Z,4.47
2019-03-28T23:33:16.421Z,4.55
2019-03-28T23:35:50.373Z,4.70
2019-03-28T23:38:25.577Z,3.72
2019-03-28T23:41:00.162Z,4.92
2019-03-28T23:43:35.968Z,4.53
2019-03-28T23:46:11.209Z,4.45
2019-03-28T23:48:46.029Z,4.28
2019-03-28T23:51:20.210Z,3.75
2019-03-28T23:53:55.070Z,4.85
2019-03-28T23:56:30.521Z,4.90
2019-03-28T23:59:05.470Z,4.47
